createdAt,value
2023-05-19T00:00:18.509Z,1.42
2023-05-19T00:02:45.595Z,1.77
2023-05-19T00:07:45.997Z,1.40
2023-05-19T00:10:13.967Z,1.30
2023-05-19T00:12:42.862Z,1.13
2023-05-19T00:15:13.079Z,1.50
2023-05-19T00:17:39.685Z,1.10
2023-05-19T00:20:06.929Z,1.23
2023-05-19T00:22:33.562Z,1.42
2023-05-19T00:25:00.346Z,1.10
2023-05-19T00:27:26.957Z,1.05
2023-05-19T00:29:53.724Z,1.50
2023-05-19T00:32:21.359Z,1.08
2023-05-19T00:34:48.329Z,1.00
2023-05-19T00:37:16.187Z,1.40
2023-05-19T00:39:42.723Z,0.73
2023-05-19T00:42:09.543Z,1.10
2023-05-19T00:44:40.791Z,1.10
2023-05-19T00:47:10.400Z,1.90
2023-05-19T00:49:36.851Z,1.45
2023-05-19T00:52:06.161Z,0.93
2023-05-19T00:54:34.533Z,1.75
2023-05-19T00:57:01.309Z,1.20
2023-05-19T00:59:28.006Z,1.20
2023-05-19T01:01:54.699Z,1.05
2023-05-19T01:04:21.940Z,1.20
2023-05-19T01:09:17.398Z,1.52
2023-05-19T01:11:43.844Z,1.35
2023-05-19T01:14:10.498Z,0.80
2023-05-19T01:16:42.496Z,0.82
2023-05-19T01:19:51.105Z,1.10
2023-05-19T01:22:42.195Z,1.08
2023-05-19T01:25:08.731Z,0.80
2023-05-19T01:28:08.033Z,1.50
2023-05-19T01:30:38.591Z,1.00
2023-05-19T01:33:08.309Z,0.90
2023-05-19T01:35:36.689Z,0.98
2023-05-19T01:38:05.370Z,1.05
2023-05-19T01:40:33.499Z,1.30
2023-05-19T01:43:01.901Z,0.88
2023-05-19T01:45:30.291Z,0.77
2023-05-19T01:47:59.115Z,1.38
2023-05-19T01:50:26.927Z,0.80
2023-05-19T01:52:55.371Z,1.15
2023-05-19T01:55:23.893Z,0.60
2023-05-19T01:58:06.609Z,1.52
2023-05-19T02:00:54.275Z,0.93
2023-05-19T02:03:42.759Z,1.38
2023-05-19T02:06:30.448Z,1.02
2023-05-19T02:08:59.576Z,1.52
2023-05-19T02:11:36.463Z,1.48
2023-05-19T02:14:24.831Z,1.70
2023-05-19T02:16:52.577Z,1.63
2023-05-19T02:19:24.320Z,0.93
2023-05-19T02:21:51.362Z,1.27
2023-05-19T02:24:18.617Z,1.10
2023-05-19T02:29:16.032Z,0.77
2023-05-19T02:31:42.824Z,1.27
2023-05-19T02:34:09.722Z,0.88
2023-05-19T02:36:36.684Z,1.35
2023-05-19T02:39:04.292Z,1.00
2023-05-19T02:41:32.102Z,1.10
2023-05-19T02:43:58.827Z,0.73
2023-05-19T02:46:25.455Z,0.55
2023-05-19T02:48:53.329Z,0.80
2023-05-19T02:51:20.051Z,0.52
2023-05-19T02:53:46.803Z,1.42
2023-05-19T02:56:13.707Z,0.77
2023-05-19T02:58:40.259Z,0.98
2023-05-19T03:01:07.051Z,1.05
2023-05-19T03:03:33.700Z,0.70
2023-05-19T03:06:00.351Z,1.25
2023-05-19T03:08:27.141Z,1.10
2023-05-19T03:10:53.925Z,0.93
2023-05-19T03:13:20.740Z,0.60
2023-05-19T03:15:47.582Z,0.70
2023-05-19T03:18:14.274Z,0.98
2023-05-19T03:20:41.731Z,0.93
2023-05-19T03:23:08.345Z,1.13
2023-05-19T03:25:35.142Z,0.93
2023-05-19T03:28:01.791Z,0.77
2023-05-19T03:30:28.607Z,1.02
2023-05-19T03:32:55.272Z,0.90
2023-05-19T03:35:21.971Z,1.00
2023-05-19T03:37:48.762Z,0.43
2023-05-19T03:40:16.097Z,1.70
2023-05-19T03:45:09.342Z,1.30
2023-05-19T03:47:36.166Z,0.90
2023-05-19T03:50:02.883Z,1.30
2023-05-19T03:52:29.756Z,0.75
2023-05-19T03:54:56.322Z,0.50
2023-05-19T03:57:22.940Z,0.80
2023-05-19T03:59:49.830Z,0.95
2023-05-19T04:02:16.980Z,1.00
2023-05-19T04:07:10.245Z,1.30
2023-05-19T04:09:36.736Z,0.73
2023-05-19T04:12:03.341Z,1.38
2023-05-19T04:14:29.848Z,1.05
2023-05-19T04:16:56.371Z,0.93
2023-05-19T04:19:23.460Z,1.08
2023-05-19T04:21:50.048Z,0.98
2023-05-19T04:24:18.616Z,0.85
2023-05-19T04:26:45.384Z,1.00
2023-05-19T04:29:12.018Z,1.08
2023-05-19T04:31:38.654Z,1.13
2023-05-19T04:34:05.514Z,1.20
2023-05-19T04:36:32.395Z,1.17
2023-05-19T04:38:58.948Z,1.38
2023-05-19T04:41:25.782Z,1.77
2023-05-19T04:43:52.322Z,1.55
2023-05-19T04:46:19.511Z,1.17
2023-05-19T04:51:12.447Z,1.23
2023-05-19T04:53:39.260Z,0.88
2023-05-19T04:56:06.358Z,0.93
2023-05-19T04:58:34.494Z,1.20
2023-05-19T05:01:01.273Z,0.70
2023-05-19T05:03:30.061Z,1.23
2023-05-19T05:05:56.753Z,1.77
2023-05-19T05:08:23.502Z,1.20
2023-05-19T05:10:53.765Z,1.02
2023-05-19T05:13:24.090Z,1.45
2023-05-19T05:15:51.186Z,1.40
2023-05-19T05:20:45.721Z,1.02
2023-05-19T05:23:12.800Z,1.23
2023-05-19T05:25:39.674Z,1.20
2023-05-19T05:28:06.481Z,1.30
2023-05-19T05:30:34.642Z,1.27
2023-05-19T05:33:02.335Z,1.42
2023-05-19T05:35:28.948Z,1.10
2023-05-19T05:37:55.689Z,1.08
2023-05-19T05:40:22.245Z,1.45
2023-05-19T05:42:48.766Z,0.90
2023-05-19T05:45:15.507Z,1.30
2023-05-19T05:47:42.370Z,1.25
2023-05-19T05:50:10.423Z,1.25
2023-05-19T05:52:37.724Z,1.63
2023-05-19T05:55:06.515Z,1.33
2023-05-19T05:57:34.842Z,1.23
2023-05-19T06:00:01.402Z,1.30
2023-05-19T06:02:28.044Z,1.33
2023-05-19T06:04:54.609Z,1.50
2023-05-19T06:07:21.649Z,1.52
2023-05-19T06:09:48.468Z,1.40
2023-05-19T06:12:15.070Z,1.67
2023-05-19T06:14:41.805Z,1.30
2023-05-19T06:17:08.357Z,1.25
2023-05-19T06:19:35.229Z,1.45
2023-05-19T06:22:01.740Z,1.35
2023-05-19T06:24:28.485Z,1.27
2023-05-19T06:26:55.974Z,1.65
2023-05-19T06:29:23.171Z,1.38
2023-05-19T06:31:50.121Z,1.25
2023-05-19T06:36:43.318Z,1.30
2023-05-19T06:39:09.990Z,1.45
2023-05-19T06:41:36.724Z,1.48
2023-05-19T06:44:04.641Z,1.10
2023-05-19T06:46:31.272Z,1.70
2023-05-19T06:48:57.843Z,1.50
2023-05-19T06:51:24.587Z,1.48
2023-05-19T06:53:51.323Z,1.58
2023-05-19T06:56:17.935Z,1.50
2023-05-19T06:58:45.390Z,1.80
2023-05-19T07:01:11.913Z,1.70
2023-05-19T07:03:38.801Z,1.50
2023-05-19T07:08:35.191Z,1.38
2023-05-19T07:11:01.727Z,1.80
2023-05-19T07:13:28.303Z,1.40
2023-05-19T07:15:55.275Z,1.52
2023-05-19T07:20:49.144Z,1.65
2023-05-19T07:23:17.346Z,1.60
2023-05-19T07:25:44.407Z,1.75
2023-05-19T07:28:10.989Z,1.58
2023-05-19T07:30:37.841Z,1.90
2023-05-19T07:33:04.872Z,1.75
2023-05-19T07:35:31.718Z,1.48
2023-05-19T07:37:58.350Z,1.63
2023-05-19T07:40:24.967Z,1.55
2023-05-19T07:42:52.126Z,2.05
2023-05-19T07:45:18.765Z,1.50
2023-05-19T07:47:45.413Z,1.63
2023-05-19T07:50:12.237Z,1.65
2023-05-19T07:52:38.808Z,1.83
2023-05-19T07:55:05.634Z,2.05
2023-05-19T07:57:34.546Z,1.58
2023-05-19T08:00:01.078Z,1.90
2023-05-19T08:02:27.944Z,1.77
2023-05-19T08:07:21.195Z,1.60
2023-05-19T08:09:48.028Z,1.65
2023-05-19T08:12:14.837Z,1.77
2023-05-19T08:14:41.611Z,1.80
2023-05-19T08:17:08.336Z,1.67
2023-05-19T08:19:35.418Z,1.80
2023-05-19T08:22:01.998Z,1.77
2023-05-19T08:24:28.520Z,2.00
2023-05-19T08:26:55.471Z,1.75
2023-05-19T08:31:49.149Z,1.55
2023-05-19T08:34:15.788Z,1.23
2023-05-19T08:36:42.516Z,2.10
2023-05-19T08:39:09.365Z,1.70
2023-05-19T08:41:36.263Z,1.77
2023-05-19T08:46:29.801Z,1.77
2023-05-19T08:52:00.021Z,1.60
2023-05-19T08:54:33.191Z,1.63
2023-05-19T08:57:02.857Z,1.40
2023-05-19T08:59:30.527Z,1.20
2023-05-19T09:01:57.606Z,1.48
2023-05-19T09:04:26.437Z,1.73
2023-05-19T09:06:54.338Z,1.38
2023-05-19T09:09:21.636Z,1.50
2023-05-19T09:11:48.417Z,1.25
2023-05-19T09:14:14.942Z,1.40
2023-05-19T09:16:42.017Z,1.30
2023-05-19T09:19:14.230Z,1.10
2023-05-19T09:21:40.734Z,1.67
2023-05-19T09:24:09.590Z,1.38
2023-05-19T09:26:39.906Z,1.30
2023-05-19T09:29:16.749Z,1.25
2023-05-19T09:31:54.181Z,1.00
2023-05-19T09:34:21.945Z,1.08
2023-05-19T09:36:48.951Z,1.15
2023-05-19T09:39:16.320Z,1.50
2023-05-19T09:41:43.584Z,1.02
2023-05-19T09:44:28.368Z,1.15
2023-05-19T09:46:55.616Z,1.52
2023-05-19T09:49:26.928Z,1.30
2023-05-19T09:51:57.867Z,1.00
2023-05-19T09:54:25.234Z,0.90
2023-05-19T09:57:00.541Z,1.33
2023-05-19T09:59:31.341Z,0.90
2023-05-19T10:02:00.239Z,1.10
2023-05-19T10:04:29.091Z,1.17
2023-05-19T10:06:57.726Z,1.15
2023-05-19T10:09:25.933Z,0.88
2023-05-19T10:11:53.757Z,1.05
2023-05-19T10:14:27.020Z,1.08
2023-05-19T10:16:57.292Z,0.90
2023-05-19T10:19:25.963Z,1.10
2023-05-19T10:21:52.878Z,1.92
2023-05-19T10:24:19.949Z,1.10
2023-05-19T10:27:00.664Z,1.50
2023-05-19T10:29:30.592Z,1.20
2023-05-19T10:32:04.714Z,1.33
2023-05-19T10:35:05.759Z,1.33
2023-05-19T10:37:58.824Z,0.98
2023-05-19T10:40:29.570Z,1.02
2023-05-19T10:43:17.613Z,1.10
2023-05-19T10:45:54.642Z,1.10
2023-05-19T10:48:21.463Z,0.88
2023-05-19T10:50:49.335Z,1.05
2023-05-19T10:53:17.879Z,1.10
2023-05-19T10:55:47.959Z,1.00
2023-05-19T10:58:14.876Z,1.50
2023-05-19T11:03:14.805Z,1.08
2023-05-19T11:05:41.704Z,1.23
2023-05-19T11:08:08.239Z,1.02
2023-05-19T11:10:34.762Z,1.20
2023-05-19T11:13:01.244Z,1.02
2023-05-19T11:15:28.600Z,1.02
2023-05-19T11:17:55.629Z,1.10
2023-05-19T11:20:23.394Z,1.25
2023-05-19T11:23:16.106Z,1.27
2023-05-19T11:25:50.054Z,1.10
2023-05-19T11:28:18.583Z,1.02
2023-05-19T11:30:46.915Z,1.08
2023-05-19T11:33:14.033Z,1.08
2023-05-19T11:35:41.021Z,1.17
2023-05-19T11:38:07.687Z,1.20
2023-05-19T11:40:34.335Z,1.00
2023-05-19T11:43:00.823Z,1.10
2023-05-19T11:45:29.398Z,1.35
2023-05-19T11:48:01.846Z,1.10
2023-05-19T11:50:31.443Z,0.93
2023-05-19T11:53:00.605Z,0.93
2023-05-19T11:55:27.707Z,1.20
2023-05-19T11:58:04.964Z,1.15
2023-05-19T12:00:38.606Z,1.23
2023-05-19T12:03:06.017Z,1.27
2023-05-19T12:05:36.623Z,1.25
2023-05-19T12:08:06.344Z,0.80
2023-05-19T12:10:33.028Z,1.25
2023-05-19T12:12:59.548Z,1.38
2023-05-19T12:15:26.495Z,1.30
2023-05-19T12:18:02.419Z,1.23
2023-05-19T12:20:29.952Z,1.17
2023-05-19T12:22:56.669Z,1.30
2023-05-19T12:25:24.316Z,1.42
2023-05-19T12:27:51.159Z,1.80
2023-05-19T12:30:17.730Z,1.27
2023-05-19T12:32:46.011Z,1.40
2023-05-19T12:35:12.580Z,1.23
2023-05-19T12:37:42.624Z,1.25
2023-05-19T12:40:09.803Z,1.08
2023-05-19T12:42:36.480Z,1.10
2023-05-19T12:45:04.201Z,1.20
2023-05-19T12:47:32.710Z,1.10
2023-05-19T12:49:59.236Z,1.23
2023-05-19T12:52:27.190Z,1.45
2023-05-19T12:55:00.666Z,1.10
2023-05-19T12:57:28.724Z,1.00
2023-05-19T13:00:00.991Z,1.33
2023-05-19T13:02:27.674Z,1.35
2023-05-19T13:07:21.494Z,1.25
2023-05-19T13:09:48.263Z,1.33
2023-05-19T13:12:14.790Z,1.40
2023-05-19T13:14:41.610Z,1.27
2023-05-19T13:19:35.180Z,1.30
2023-05-19T13:22:01.783Z,1.35
2023-05-19T13:24:28.263Z,1.38
2023-05-19T13:26:56.017Z,1.05
2023-05-19T13:29:22.928Z,1.45
2023-05-19T13:31:49.467Z,1.35
2023-05-19T13:34:15.987Z,1.40
2023-05-19T13:36:42.809Z,1.35
2023-05-19T13:39:09.559Z,1.58
2023-05-19T13:41:36.054Z,1.25
2023-05-19T13:44:02.740Z,1.17
2023-05-19T13:49:11.170Z,2.03
2023-05-19T13:51:37.925Z,1.30
2023-05-19T13:56:30.803Z,1.35
2023-05-19T13:58:57.290Z,1.20
2023-05-19T14:01:23.776Z,1.48
2023-05-19T14:03:50.382Z,1.40
2023-05-19T14:08:43.623Z,1.30
2023-05-19T14:13:40.388Z,1.38
2023-05-19T14:16:09.263Z,1.17
2023-05-19T14:18:36.038Z,1.42
2023-05-19T14:21:02.781Z,1.02
2023-05-19T14:25:56.217Z,1.23
2023-05-19T14:28:22.891Z,1.40
2023-05-19T14:30:50.263Z,1.60
2023-05-19T14:33:17.345Z,1.42
2023-05-19T14:35:44.224Z,1.20
2023-05-19T14:40:37.858Z,1.27
2023-05-19T14:43:04.490Z,1.25
2023-05-19T14:45:30.917Z,1.55
2023-05-19T14:47:58.129Z,1.65
2023-05-19T14:50:26.093Z,1.33
2023-05-19T14:52:53.534Z,1.10
2023-05-19T14:55:21.853Z,1.33
2023-05-19T14:57:51.166Z,1.38
2023-05-19T15:00:18.326Z,1.35
2023-05-19T15:02:46.374Z,1.15
2023-05-19T15:05:13.068Z,1.20
2023-05-19T15:07:40.388Z,1.30
2023-05-19T15:10:07.757Z,1.40
2023-05-19T15:12:34.658Z,1.55
2023-05-19T15:15:03.436Z,1.20
2023-05-19T15:17:30.179Z,1.17
2023-05-19T15:22:23.566Z,1.48
2023-05-19T15:27:16.883Z,1.42
2023-05-19T15:32:10.190Z,1.20
2023-05-19T15:37:03.932Z,1.30
2023-05-19T15:39:34.649Z,1.20
2023-05-19T15:42:03.636Z,1.55
2023-05-19T15:44:31.608Z,1.17
2023-05-19T15:47:01.463Z,1.40
2023-05-19T15:49:28.037Z,1.52
2023-05-19T15:51:54.796Z,1.50
2023-05-19T15:56:47.966Z,1.20
2023-05-19T15:59:14.958Z,1.40
2023-05-19T16:01:41.703Z,1.10
2023-05-19T16:06:35.122Z,1.50
2023-05-19T16:11:29.062Z,0.90
2023-05-19T16:13:55.662Z,1.20
2023-05-19T16:16:22.493Z,1.13
2023-05-19T16:21:17.525Z,1.25
2023-05-19T16:23:44.352Z,1.67
2023-05-19T16:26:11.358Z,1.52
2023-05-19T16:28:38.521Z,1.33
2023-05-19T16:31:05.269Z,1.20
2023-05-19T16:33:31.828Z,1.60
2023-05-19T16:35:59.115Z,1.38
2023-05-19T16:38:26.055Z,1.20
2023-05-19T16:40:52.753Z,1.70
2023-05-19T16:43:19.465Z,1.45
2023-05-19T16:45:46.406Z,1.20
2023-05-19T16:48:13.006Z,1.10
2023-05-19T16:50:39.629Z,1.20
2023-05-19T16:53:06.556Z,1.33
2023-05-19T16:55:34.339Z,1.23
2023-05-19T16:58:01.083Z,1.50
2023-05-19T17:00:27.902Z,1.25
2023-05-19T17:05:21.472Z,1.65
2023-05-19T17:07:47.947Z,1.58
2023-05-19T17:10:14.779Z,1.20
2023-05-19T17:15:08.237Z,1.60
2023-05-19T17:20:03.582Z,1.10
2023-05-19T17:22:30.524Z,1.20
2023-05-19T17:24:57.355Z,1.30
2023-05-19T17:29:50.460Z,1.50
2023-05-19T17:32:17.378Z,1.38
2023-05-19T17:34:44.511Z,1.60
2023-05-19T17:37:11.380Z,1.58
2023-05-19T17:39:39.564Z,1.48
2023-05-19T17:42:06.204Z,1.42
2023-05-19T17:44:33.022Z,1.02
2023-05-19T17:49:29.969Z,1.20
2023-05-19T17:51:56.716Z,1.40
2023-05-19T17:54:23.661Z,1.70
2023-05-19T17:59:17.890Z,1.23
2023-05-19T18:01:44.881Z,1.45
2023-05-19T18:04:16.053Z,1.45
2023-05-19T18:06:45.221Z,1.50
2023-05-19T18:09:13.850Z,1.35
2023-05-19T18:11:44.559Z,1.50
2023-05-19T18:14:11.102Z,1.75
2023-05-19T18:16:38.913Z,1.45
2023-05-19T18:19:05.893Z,1.60
2023-05-19T18:23:59.370Z,1.60
2023-05-19T18:26:27.704Z,1.10
2023-05-19T18:28:54.704Z,1.83
2023-05-19T18:31:21.278Z,1.50
2023-05-19T18:33:49.346Z,1.90
2023-05-19T18:36:16.233Z,1.60
2023-05-19T18:41:09.633Z,1.60
2023-05-19T18:43:36.140Z,1.50
2023-05-19T18:46:05.519Z,1.52
2023-05-19T18:48:32.138Z,1.75
2023-05-19T18:50:59.634Z,1.67
2023-05-19T18:53:26.880Z,1.40
2023-05-19T18:55:56.335Z,1.75
2023-05-19T18:58:22.852Z,1.65
2023-05-19T19:00:49.388Z,1.63
2023-05-19T19:03:16.309Z,1.45
2023-05-19T19:05:43.805Z,1.65
2023-05-19T19:08:10.332Z,1.67
2023-05-19T19:10:37.423Z,1.50
2023-05-19T19:13:04.440Z,1.35
2023-05-19T19:15:31.029Z,1.63
2023-05-19T19:17:57.661Z,1.67
2023-05-19T19:20:27.275Z,1.58
2023-05-19T19:22:53.782Z,1.52
2023-05-19T19:25:23.095Z,1.80
2023-05-19T19:27:50.247Z,1.55
2023-05-19T19:30:16.842Z,1.50
2023-05-19T19:32:43.831Z,1.90
2023-05-19T19:35:11.015Z,1.92
2023-05-19T19:37:38.499Z,1.33
2023-05-19T19:40:06.025Z,1.60
2023-05-19T19:42:32.789Z,1.60
2023-05-19T19:44:59.488Z,2.13
2023-05-19T19:47:27.149Z,1.70
2023-05-19T19:49:54.024Z,1.70
2023-05-19T19:52:20.711Z,1.95
2023-05-19T19:54:47.482Z,1.88
2023-05-19T19:57:14.436Z,1.25
2023-05-19T20:02:07.688Z,1.85
2023-05-19T20:04:34.491Z,1.90
2023-05-19T20:07:01.429Z,1.80
2023-05-19T20:11:54.574Z,1.60
2023-05-19T20:14:21.313Z,1.75
2023-05-19T20:16:48.171Z,1.45
2023-05-19T20:19:14.967Z,1.75
2023-05-19T20:21:42.151Z,1.95
2023-05-19T20:24:08.952Z,2.03
2023-05-19T20:26:36.012Z,1.88
2023-05-19T20:29:03.121Z,1.88
2023-05-19T20:31:29.808Z,1.90
2023-05-19T20:33:57.308Z,1.75
2023-05-19T20:36:25.243Z,1.80
2023-05-19T20:38:51.822Z,2.13
2023-05-19T20:41:18.656Z,2.20
2023-05-19T20:43:45.158Z,2.60
2023-05-19T20:46:12.072Z,2.25
2023-05-19T20:48:38.846Z,2.08
2023-05-19T20:51:05.552Z,2.20
2023-05-19T20:53:32.328Z,2.00
2023-05-19T20:55:59.128Z,2.20
2023-05-19T20:58:27.852Z,2.22
2023-05-19T21:00:54.769Z,2.40
2023-05-19T21:03:23.384Z,2.55
2023-05-19T21:05:51.983Z,2.47
2023-05-19T21:08:19.729Z,2.40
2023-05-19T21:10:46.366Z,2.83
2023-05-19T21:13:13.109Z,2.97
2023-05-19T21:15:39.780Z,2.28
2023-05-19T21:18:07.454Z,2.20
2023-05-19T21:20:36.629Z,1.90
2023-05-19T21:23:03.785Z,2.47
2023-05-19T21:25:30.419Z,2.47
2023-05-19T21:27:58.436Z,2.00
2023-05-19T21:30:25.240Z,2.05
2023-05-19T21:32:52.087Z,2.17
2023-05-19T21:35:18.789Z,3.08
2023-05-19T21:37:45.656Z,2.33
2023-05-19T21:40:12.889Z,3.15
2023-05-19T21:42:39.655Z,2.13
2023-05-19T21:45:06.981Z,2.47
2023-05-19T21:47:33.521Z,2.50
2023-05-19T21:50:00.211Z,2.03
2023-05-19T21:52:27.348Z,2.08
2023-05-19T21:54:53.972Z,2.83
2023-05-19T21:57:20.497Z,1.80
2023-05-19T21:59:47.146Z,1.73
2023-05-19T22:02:13.678Z,1.90
2023-05-19T22:04:41.431Z,2.17
2023-05-19T22:07:08.037Z,2.05
2023-05-19T22:09:34.548Z,1.98
2023-05-19T22:12:01.430Z,2.10
2023-05-19T22:14:27.959Z,1.95
2023-05-19T22:16:54.538Z,1.80
2023-05-19T22:19:21.492Z,1.83
2023-05-19T22:21:49.242Z,1.40
2023-05-19T22:24:17.177Z,1.63
2023-05-19T22:26:43.800Z,1.83
2023-05-19T22:29:10.578Z,1.77
2023-05-19T22:31:37.292Z,1.90
2023-05-19T22:34:04.170Z,1.85
2023-05-19T22:36:30.728Z,2.58
2023-05-19T22:38:58.656Z,3.08
2023-05-19T22:41:31.100Z,2.20
2023-05-19T22:43:57.845Z,2.28
2023-05-19T22:46:24.653Z,2.20
2023-05-19T22:48:51.200Z,1.90
2023-05-19T22:51:17.651Z,2.33
2023-05-19T22:53:44.186Z,2.10
2023-05-19T22:56:10.689Z,1.63
2023-05-19T22:58:37.253Z,1.70
2023-05-19T23:01:04.036Z,1.48
2023-05-19T23:03:30.523Z,1.85
2023-05-19T23:05:57.100Z,1.70
2023-05-19T23:08:23.884Z,1.73
2023-05-19T23:10:50.647Z,2.15
2023-05-19T23:13:17.414Z,1.70
2023-05-19T23:15:44.149Z,1.65
2023-05-19T23:18:10.975Z,1.92
2023-05-19T23:20:37.572Z,1.90
2023-05-19T23:23:04.377Z,1.42
2023-05-19T23:25:31.197Z,1.73
2023-05-19T23:27:57.971Z,1.73
2023-05-19T23:30:24.675Z,1.77
2023-05-19T23:32:51.391Z,1.48
2023-05-19T23:35:18.322Z,1.58
2023-05-19T23:37:45.113Z,1.40
2023-05-19T23:40:13.480Z,1.60
2023-05-19T23:42:40.291Z,2.08
2023-05-19T23:45:07.477Z,2.00
2023-05-19T23:47:36.482Z,1.45
2023-05-19T23:50:03.375Z,1.60
2023-05-19T23:52:29.956Z,1.65
2023-05-19T23:54:58.538Z,1.95
2023-05-19T23:57:26.930Z,1.80
2023-05-19T23:59:53.434Z,1.63
